Mardan, Pakistan
Current Conditions -  °F | °C
As of 9:00 PM on Friday 21 Nov 2014 (Local Time) from OPPS Reporting Station
Haze Haze  
Wind Chill: 57°   Ceiling: Unl
Heat Index: 57°   Visibility: 1.5mi
Dew Point: 46°   Wind: 0mph
Humidity: 67%   Direction: NA
Pressure: NA   Gusts: NA
Location:  34.2°N, 72.04°E
Report Text: OPPS 211600Z 00000KT 2500 HZ FEW250 14/08 Q1014.6
Loading
Personal Weather Stations






























Interactive Weather Map New forecast layout! Learn more

10-Day Weather Forecast

Advertisements
Track Severe Weather on mobile